sensor_id;sensor_type;location;lat;lon;timestamp;pressure;altitude;pressure_sealevel;temperature;humidity
71504;BME280;59323;50.874;7.028;2023-01-28T00:02:14;102423.25;;;2.63;87.19
71504;BME280;59323;50.874;7.028;2023-01-28T00:04:39;102426.19;;;2.62;87.33
71504;BME280;59323;50.874;7.028;2023-01-28T00:07:05;102433.44;;;2.61;86.14
71504;BME280;59323;50.874;7.028;2023-01-28T00:09:30;102426.44;;;2.55;87.08
71504;BME280;59323;50.874;7.028;2023-01-28T00:11:55;102430.47;;;2.52;86.46
71504;BME280;59323;50.874;7.028;2023-01-28T00:14:21;102429.38;;;2.48;87.13
71504;BME280;59323;50.874;7.028;2023-01-28T00:16:46;102430.47;;;2.42;87.79
71504;BME280;59323;50.874;7.028;2023-01-28T00:19:11;102413.28;;;2.38;88.40
71504;BME280;59323;50.874;7.028;2023-01-28T00:21:37;102417.56;;;2.34;87.99
71504;BME280;59323;50.874;7.028;2023-01-28T00:24:02;102416.50;;;2.30;88.44
71504;BME280;59323;50.874;7.028;2023-01-28T00:26:27;102420.78;;;2.26;88.74
71504;BME280;59323;50.874;7.028;2023-01-28T00:28:53;102419.97;;;2.20;88.26
71504;BME280;59323;50.874;7.028;2023-01-28T00:31:24;102418.63;;;2.18;87.99
71504;BME280;59323;50.874;7.028;2023-01-28T00:33:52;102418.63;;;2.13;88.43
71504;BME280;59323;50.874;7.028;2023-01-28T00:36:19;102414.06;;;2.08;88.40
71504;BME280;59323;50.874;7.028;2023-01-28T00:38:50;102418.59;;;2.03;88.03
71504;BME280;59323;50.874;7.028;2023-01-28T00:41:17;102421.28;;;1.98;88.99
71504;BME280;59323;50.874;7.028;2023-01-28T00:43:47;102407.84;;;1.92;88.84
71504;BME280;59323;50.874;7.028;2023-01-28T00:46:13;102419.63;;;1.91;89.43
71504;BME280;59323;50.874;7.028;2023-01-28T00:48:39;102423.66;;;1.89;89.07
71504;BME280;59323;50.874;7.028;2023-01-28T00:51:06;102424.44;;;1.84;89.83
71504;BME280;59323;50.874;7.028;2023-01-28T00:53:32;102426.31;;;1.84;89.05
71504;BME280;59323;50.874;7.028;2023-01-28T00:56:00;102419.59;;;1.81;89.30
71504;BME280;59323;50.874;7.028;2023-01-28T00:58:26;102414.53;;;1.85;88.53
71504;BME280;59323;50.874;7.028;2023-01-28T01:00:51;102423.38;;;1.85;88.73
71504;BME280;59323;50.874;7.028;2023-01-28T01:03:17;102424.97;;;1.81;88.47
71504;BME280;59323;50.874;7.028;2023-01-28T01:05:43;102421.72;;;1.74;88.42
71504;BME280;59323;50.874;7.028;2023-01-28T01:08:08;102417.44;;;1.73;88.74
71504;BME280;59323;50.874;7.028;2023-01-28T01:10:34;102418.50;;;1.67;89.59
71504;BME280;59323;50.874;7.028;2023-01-28T01:12:59;102422.75;;;1.63;89.30
71504;BME280;59323;50.874;7.028;2023-01-28T01:15:25;102412.56;;;1.60;89.90
71504;BME280;59323;50.874;7.028;2023-01-28T01:17:50;102400.22;;;1.54;89.81
71504;BME280;59323;50.874;7.028;2023-01-28T01:20:18;102407.16;;;1.50;90.10
71504;BME280;59323;50.874;7.028;2023-01-28T01:22:44;102409.81;;;1.45;89.61
71504;BME280;59323;50.874;7.028;2023-01-28T01:25:11;102414.38;;;1.44;89.65
71504;BME280;59323;50.874;7.028;2023-01-28T01:27:37;102417.03;;;1.39;90.56
71504;BME280;59323;50.874;7.028;2023-01-28T01:30:02;102426.41;;;1.37;90.76
71504;BME280;59323;50.874;7.028;2023-01-28T01:32:29;102425.84;;;1.35;90.89
71504;BME280;59323;50.874;7.028;2023-01-28T01:34:55;102423.97;;;1.30;91.25
71504;BME280;59323;50.874;7.028;2023-01-28T01:37:26;102432.00;;;1.30;91.21
71504;BME280;59323;50.874;7.028;2023-01-28T01:39:51;102428.75;;;1.28;90.78
71504;BME280;59323;50.874;7.028;2023-01-28T01:42:17;102429.25;;;1.25;91.03
71504;BME280;59323;50.874;7.028;2023-01-28T01:47:41;102420.94;;;1.21;91.29
71504;BME280;59323;50.874;7.028;2023-01-28T01:50:23;102421.47;;;1.18;91.60
71504;BME280;59323;50.874;7.028;2023-01-28T01:52:52;102417.94;;;1.13;91.12
71504;BME280;59323;50.874;7.028;2023-01-28T01:55:21;102421.13;;;1.10;91.62
71504;BME280;59323;50.874;7.028;2023-01-28T01:57:49;102423.53;;;1.06;91.67
71504;BME280;59323;50.874;7.028;2023-01-28T02:00:16;102425.13;;;1.02;91.60
71504;BME280;59323;50.874;7.028;2023-01-28T02:02:45;102428.84;;;1.01;91.48
71504;BME280;59323;50.874;7.028;2023-01-28T02:05:13;102435.78;;;0.97;92.08
71504;BME280;59323;50.874;7.028;2023-01-28T02:07:43;102437.38;;;0.93;92.08
71504;BME280;59323;50.874;7.028;2023-01-28T02:10:10;102435.75;;;0.92;92.17
71504;BME280;59323;50.874;7.028;2023-01-28T02:12:39;102438.94;;;0.89;91.89
71504;BME280;59323;50.874;7.028;2023-01-28T02:15:10;102433.03;;;0.87;92.45
71504;BME280;59323;50.874;7.028;2023-01-28T02:17:36;102433.28;;;0.85;92.57
71504;BME280;59323;50.874;7.028;2023-01-28T02:20:08;102431.94;;;0.83;92.63
71504;BME280;59323;50.874;7.028;2023-01-28T02:25:51;102432.16;;;0.76;92.51
71504;BME280;59323;50.874;7.028;2023-01-28T02:30:39;102439.34;;;0.71;92.59
71504;BME280;59323;50.874;7.028;2023-01-28T02:38:52;102442.41;;;0.57;92.95
71504;BME280;59323;50.874;7.028;2023-01-28T02:41:28;102444.00;;;0.53;92.61
71504;BME280;59323;50.874;7.028;2023-01-28T02:43:56;102452.53;;;0.50;92.85
71504;BME280;59323;50.874;7.028;2023-01-28T02:49:26;102451.13;;;0.43;92.58
71504;BME280;59323;50.874;7.028;2023-01-28T02:57:01;102453.16;;;0.30;93.33
71504;BME280;59323;50.874;7.028;2023-01-28T02:59:41;102458.75;;;0.29;92.74
71504;BME280;59323;50.874;7.028;2023-01-28T03:02:22;102464.34;;;0.27;93.46
71504;BME280;59323;50.874;7.028;2023-01-28T03:05:04;102464.84;;;0.24;93.84
71504;BME280;59323;50.874;7.028;2023-01-28T03:07:34;102475.78;;;0.23;93.24
71504;BME280;59323;50.874;7.028;2023-01-28T03:10:05;102474.19;;;0.22;93.92
71504;BME280;59323;50.874;7.028;2023-01-28T03:12:32;102472.81;;;0.19;93.40
71504;BME280;59323;50.874;7.028;2023-01-28T03:15:24;102476.84;;;0.22;93.58
71504;BME280;59323;50.874;7.028;2023-01-28T03:18:22;102478.66;;;0.16;94.23
71504;BME280;59323;50.874;7.028;2023-01-28T03:23:59;102475.94;;;0.11;94.54
71504;BME280;59323;50.874;7.028;2023-01-28T03:27:02;102471.91;;;0.09;94.17
71504;BME280;59323;50.874;7.028;2023-01-28T03:29:50;102472.41;;;0.06;94.93
71504;BME280;59323;50.874;7.028;2023-01-28T03:32:37;102481.47;;;0.05;94.78
71504;BME280;59323;50.874;7.028;2023-01-28T03:35:27;102480.16;;;0.07;94.88
71504;BME280;59323;50.874;7.028;2023-01-28T03:38:13;102478.50;;;0.01;94.93
71504;BME280;59323;50.874;7.028;2023-01-28T03:40:51;102482.44;;;-0.02;95.39
71504;BME280;59323;50.874;7.028;2023-01-28T03:43:17;102485.63;;;-0.05;94.75
71504;BME280;59323;50.874;7.028;2023-01-28T03:45:42;102481.59;;;-0.07;94.99
71504;BME280;59323;50.874;7.028;2023-01-28T03:48:07;102480.22;;;-0.10;95.63
71504;BME280;59323;50.874;7.028;2023-01-28T03:50:33;102485.56;;;-0.10;95.55
71504;BME280;59323;50.874;7.028;2023-01-28T03:52:59;102479.66;;;-0.12;94.93
71504;BME280;59323;50.874;7.028;2023-01-28T03:55:36;102486.88;;;-0.12;95.77
71504;BME280;59323;50.874;7.028;2023-01-28T03:58:01;102489.78;;;-0.14;95.12
71504;BME280;59323;50.874;7.028;2023-01-28T04:00:26;102494.56;;;-0.16;94.99
71504;BME280;59323;50.874;7.028;2023-01-28T04:02:52;102500.16;;;-0.17;95.63
71504;BME280;59323;50.874;7.028;2023-01-28T04:05:17;102505.75;;;-0.19;95.48
71504;BME280;59323;50.874;7.028;2023-01-28T04:07:44;102506.00;;;-0.20;95.24
71504;BME280;59323;50.874;7.028;2023-01-28T04:10:09;102510.84;;;-0.17;95.88
71504;BME280;59323;50.874;7.028;2023-01-28T04:12:35;102510.84;;;-0.17;95.37
71504;BME280;59323;50.874;7.028;2023-01-28T04:15:03;102509.28;;;-0.13;95.97
71504;BME280;59323;50.874;7.028;2023-01-28T04:17:39;102506.13;;;-0.10;95.88
71504;BME280;59323;50.874;7.028;2023-01-28T04:20:05;102509.66;;;-0.05;96.05
71504;BME280;59323;50.874;7.028;2023-01-28T04:22:30;102504.63;;;-0.01;96.32
71504;BME280;59323;50.874;7.028;2023-01-28T04:24:55;102509.81;;;0.06;95.57
71504;BME280;59323;50.874;7.028;2023-01-28T04:27:21;102513.53;;;0.05;95.48
71504;BME280;59323;50.874;7.028;2023-01-28T04:29:46;102513.28;;;0.06;96.14
71504;BME280;59323;50.874;7.028;2023-01-28T04:32:11;102515.47;;;0.09;95.20
71504;BME280;59323;50.874;7.028;2023-01-28T04:34:37;102513.84;;;0.08;95.59
71504;BME280;59323;50.874;7.028;2023-01-28T04:37:02;102511.44;;;0.07;95.06
71504;BME280;59323;50.874;7.028;2023-01-28T04:39:27;102520.31;;;0.12;94.90
71504;BME280;59323;50.874;7.028;2023-01-28T04:41:52;102510.44;;;0.13;94.98
71504;BME280;59323;50.874;7.028;2023-01-28T04:44:18;102512.28;;;0.12;94.62
71504;BME280;59323;50.874;7.028;2023-01-28T04:46:43;102522.44;;;0.10;94.31
71504;BME280;59323;50.874;7.028;2023-01-28T04:49:08;102529.88;;;0.08;95.09
71504;BME280;59323;50.874;7.028;2023-01-28T04:51:34;102534.00;;;0.16;94.64
71504;BME280;59323;50.874;7.028;2023-01-28T04:53:59;102536.16;;;0.19;94.50
71504;BME280;59323;50.874;7.028;2023-01-28T04:56:24;102533.50;;;0.19;93.95
71504;BME280;59323;50.874;7.028;2023-01-28T04:58:50;102527.38;;;0.23;94.27
71504;BME280;59323;50.874;7.028;2023-01-28T05:01:15;102535.78;;;0.32;92.97
71504;BME280;59323;50.874;7.028;2023-01-28T05:03:40;102536.28;;;0.29;93.11
71504;BME280;59323;50.874;7.028;2023-01-28T05:06:06;102531.97;;;0.28;93.89
71504;BME280;59323;50.874;7.028;2023-01-28T05:08:31;102529.88;;;0.30;93.09
71504;BME280;59323;50.874;7.028;2023-01-28T05:10:56;102535.78;;;0.32;92.70
71504;BME280;59323;50.874;7.028;2023-01-28T05:13:22;102533.34;;;0.30;93.24
71504;BME280;59323;50.874;7.028;2023-01-28T05:15:53;102539.25;;;0.32;92.48
71504;BME280;59323;50.874;7.028;2023-01-28T05:18:19;102538.19;;;0.34;92.48
71504;BME280;59323;50.874;7.028;2023-01-28T05:20:44;102540.16;;;0.43;92.41
71504;BME280;59323;50.874;7.028;2023-01-28T05:23:09;102539.88;;;0.40;91.58
71504;BME280;59323;50.874;7.028;2023-01-28T05:25:35;102538.25;;;0.39;91.81
71504;BME280;59323;50.874;7.028;2023-01-28T05:28:00;102533.72;;;0.39;91.43
71504;BME280;59323;50.874;7.028;2023-01-28T05:30:26;102532.34;;;0.37;92.54
71504;BME280;59323;50.874;7.028;2023-01-28T05:32:55;102535.81;;;0.37;92.94
71504;BME280;59323;50.874;7.028;2023-01-28T05:35:21;102535.56;;;0.39;92.18
71504;BME280;59323;50.874;7.028;2023-01-28T05:37:46;102538.25;;;0.39;92.41
71504;BME280;59323;50.874;7.028;2023-01-28T05:40:12;102537.69;;;0.37;92.45
71504;BME280;59323;50.874;7.028;2023-01-28T05:42:37;102531.59;;;0.41;90.99
71504;BME280;59323;50.874;7.028;2023-01-28T05:45:03;102545.22;;;0.40;91.06
71504;BME280;59323;50.874;7.028;2023-01-28T05:47:28;102539.91;;;0.45;90.60
71504;BME280;59323;50.874;7.028;2023-01-28T05:49:54;102545.25;;;0.45;90.09
71504;BME280;59323;50.874;7.028;2023-01-28T05:52:19;102547.69;;;0.46;90.49
71504;BME280;59323;50.874;7.028;2023-01-28T05:54:44;102542.88;;;0.48;89.65
71504;BME280;59323;50.874;7.028;2023-01-28T05:57:10;102546.06;;;0.45;89.95
71504;BME280;59323;50.874;7.028;2023-01-28T05:59:35;102547.13;;;0.44;89.79
71504;BME280;59323;50.874;7.028;2023-01-28T06:02:00;102558.38;;;0.46;89.83
71504;BME280;59323;50.874;7.028;2023-01-28T06:04:26;102562.66;;;0.47;90.29
71504;BME280;59323;50.874;7.028;2023-01-28T06:06:51;102559.75;;;0.49;89.76
71504;BME280;59323;50.874;7.028;2023-01-28T06:09:16;102564.84;;;0.50;89.95
71504;BME280;59323;50.874;7.028;2023-01-28T06:11:42;102562.16;;;0.50;89.60
71504;BME280;59323;50.874;7.028;2023-01-28T06:14:08;102564.84;;;0.50;89.22
71504;BME280;59323;50.874;7.028;2023-01-28T06:16:33;102569.13;;;0.51;88.65
71504;BME280;59323;50.874;7.028;2023-01-28T06:18:59;102564.91;;;0.55;88.59
71504;BME280;59323;50.874;7.028;2023-01-28T06:21:25;102566.22;;;0.53;88.71
71504;BME280;59323;50.874;7.028;2023-01-28T06:23:50;102571.56;;;0.53;88.35
71504;BME280;59323;50.874;7.028;2023-01-28T06:26:16;102572.91;;;0.55;87.77
71504;BME280;59323;50.874;7.028;2023-01-28T06:28:41;102571.06;;;0.56;87.98
71504;BME280;59323;50.874;7.028;2023-01-28T06:31:06;102572.25;;;0.65;86.04
71504;BME280;59323;50.874;7.028;2023-01-28T06:33:32;102566.56;;;0.61;87.71
71504;BME280;59323;50.874;7.028;2023-01-28T06:35:57;102574.03;;;0.59;88.18
71504;BME280;59323;50.874;7.028;2023-01-28T06:38:22;102583.13;;;0.58;88.18
71504;BME280;59323;50.874;7.028;2023-01-28T06:40:52;102576.97;;;0.58;89.21
71504;BME280;59323;50.874;7.028;2023-01-28T06:43:20;102573.97;;;0.54;89.03
71504;BME280;59323;50.874;7.028;2023-01-28T06:45:45;102582.56;;;0.56;88.44
71504;BME280;59323;50.874;7.028;2023-01-28T06:48:11;102576.41;;;0.56;88.44
71504;BME280;59323;50.874;7.028;2023-01-28T06:50:36;102576.66;;;0.54;88.33
71504;BME280;59323;50.874;7.028;2023-01-28T06:53:02;102573.16;;;0.54;89.27
71504;BME280;59323;50.874;7.028;2023-01-28T06:55:27;102577.16;;;0.51;89.93
71504;BME280;59323;50.874;7.028;2023-01-28T06:57:52;102571.56;;;0.53;89.35
71504;BME280;59323;50.874;7.028;2023-01-28T07:00:18;102579.31;;;0.54;88.70
71504;BME280;59323;50.874;7.028;2023-01-28T07:02:43;102577.72;;;0.53;88.77
71504;BME280;59323;50.874;7.028;2023-01-28T07:05:09;102577.97;;;0.52;89.63
71504;BME280;59323;50.874;7.028;2023-01-28T07:07:35;102575.59;;;0.55;87.09
71504;BME280;59323;50.874;7.028;2023-01-28T07:10:01;102577.22;;;0.56;87.61
71504;BME280;59323;50.874;7.028;2023-01-28T07:12:26;102573.22;;;0.59;86.31
71504;BME280;59323;50.874;7.028;2023-01-28T07:14:51;102578.06;;;0.62;86.64
71504;BME280;59323;50.874;7.028;2023-01-28T07:17:18;102585.78;;;0.58;87.60
71504;BME280;59323;50.874;7.028;2023-01-28T07:19:44;102583.63;;;0.55;87.91
71504;BME280;59323;50.874;7.028;2023-01-28T07:22:10;102579.31;;;0.54;88.40
71504;BME280;59323;50.874;7.028;2023-01-28T07:24:35;102584.13;;;0.52;87.61
71504;BME280;59323;50.874;7.028;2023-01-28T07:27:01;102583.31;;;0.52;88.87
71504;BME280;59323;50.874;7.028;2023-01-28T07:29:27;102584.13;;;0.52;88.43
71504;BME280;59323;50.874;7.028;2023-01-28T07:31:53;102591.09;;;0.53;88.24
71504;BME280;59323;50.874;7.028;2023-01-28T07:34:18;102592.16;;;0.52;87.56
71504;BME280;59323;50.874;7.028;2023-01-28T07:36:43;102593.19;;;0.51;87.70
71504;BME280;59323;50.874;7.028;2023-01-28T07:39:08;102597.81;;;0.56;87.24
71504;BME280;59323;50.874;7.028;2023-01-28T07:41:34;102595.38;;;0.54;87.16
71504;BME280;59323;50.874;7.028;2023-01-28T07:43:59;102596.75;;;0.57;86.70
71504;BME280;59323;50.874;7.028;2023-01-28T07:46:25;102597.28;;;0.59;86.44
71504;BME280;59323;50.874;7.028;2023-01-28T07:48:50;102604.50;;;0.58;85.83
71504;BME280;59323;50.874;7.028;2023-01-28T07:51:15;102595.69;;;0.58;85.25
71504;BME280;59323;50.874;7.028;2023-01-28T07:53:41;102589.91;;;0.66;83.81
71504;BME280;59323;50.874;7.028;2023-01-28T07:56:06;102589.09;;;0.66;85.45
71504;BME280;59323;50.874;7.028;2023-01-28T07:58:32;102596.31;;;0.65;86.38
71504;BME280;59323;50.874;7.028;2023-01-28T08:00:59;102600.63;;;0.66;85.87
71504;BME280;59323;50.874;7.028;2023-01-28T08:03:26;102598.75;;;0.67;86.33
71504;BME280;59323;50.874;7.028;2023-01-28T08:05:53;102601.69;;;0.65;85.77
71504;BME280;59323;50.874;7.028;2023-01-28T08:08:19;102600.84;;;0.64;85.58
71504;BME280;59323;50.874;7.028;2023-01-28T08:10:45;102597.34;;;0.64;86.76
71504;BME280;59323;50.874;7.028;2023-01-28T08:13:12;102599.22;;;0.63;86.31
71504;BME280;59323;50.874;7.028;2023-01-28T08:15:38;102606.44;;;0.63;86.78
71504;BME280;59323;50.874;7.028;2023-01-28T08:18:05;102605.16;;;0.66;86.00
71504;BME280;59323;50.874;7.028;2023-01-28T08:20:31;102617.47;;;0.67;85.33
71504;BME280;59323;50.874;7.028;2023-01-28T08:23:07;102608.63;;;0.66;85.28
71504;BME280;59323;50.874;7.028;2023-01-28T08:25:34;102612.94;;;0.67;85.48
71504;BME280;59323;50.874;7.028;2023-01-28T08:28:00;102622.00;;;0.66;86.49
71504;BME280;59323;50.874;7.028;2023-01-28T08:30:26;102619.91;;;0.68;86.28
71504;BME280;59323;50.874;7.028;2023-01-28T08:32:54;102625.00;;;0.70;86.06
71504;BME280;59323;50.874;7.028;2023-01-28T08:35:20;102633.56;;;0.72;85.04
71504;BME280;59323;50.874;7.028;2023-01-28T08:37:45;102632.00;;;0.76;83.71
71504;BME280;59323;50.874;7.028;2023-01-28T08:40:11;102633.13;;;0.80;83.38
71504;BME280;59323;50.874;7.028;2023-01-28T08:42:36;102629.41;;;0.81;84.47
71504;BME280;59323;50.874;7.028;2023-01-28T08:45:02;102621.63;;;0.79;83.64
71504;BME280;59323;50.874;7.028;2023-01-28T08:47:27;102624.59;;;0.83;82.58
71504;BME280;59323;50.874;7.028;2023-01-28T08:49:53;102625.97;;;0.85;82.84
71504;BME280;59323;50.874;7.028;2023-01-28T08:52:18;102627.06;;;0.89;81.57
71504;BME280;59323;50.874;7.028;2023-01-28T08:54:43;102641.81;;;0.92;81.66
71504;BME280;59323;50.874;7.028;2023-01-28T08:57:09;102643.72;;;0.97;79.19
71504;BME280;59323;50.874;7.028;2023-01-28T08:59:34;102643.72;;;0.97;80.51
71504;BME280;59323;50.874;7.028;2023-01-28T09:01:59;102637.88;;;1.00;80.05
71504;BME280;59323;50.874;7.028;2023-01-28T09:04:25;102637.13;;;1.04;79.90
71504;BME280;59323;50.874;7.028;2023-01-28T09:06:50;102638.22;;;1.08;80.77
71504;BME280;59323;50.874;7.028;2023-01-28T09:09:15;102647.81;;;1.04;81.41
71504;BME280;59323;50.874;7.028;2023-01-28T09:11:41;102650.00;;;1.07;81.32
71504;BME280;59323;50.874;7.028;2023-01-28T09:14:06;102647.31;;;1.07;80.36
71504;BME280;59323;50.874;7.028;2023-01-28T09:16:31;102653.47;;;1.08;80.94
71504;BME280;59323;50.874;7.028;2023-01-28T09:18:57;102654.53;;;1.07;82.31
71504;BME280;59323;50.874;7.028;2023-01-28T09:21:22;102659.38;;;1.10;80.41
71504;BME280;59323;50.874;7.028;2023-01-28T09:23:47;102662.94;;;1.15;79.61
71504;BME280;59323;50.874;7.028;2023-01-28T09:26:13;102668.88;;;1.22;77.77
71504;BME280;59323;50.874;7.028;2023-01-28T09:28:39;102670.00;;;1.26;77.37
71504;BME280;59323;50.874;7.028;2023-01-28T09:31:09;102675.91;;;1.28;77.96
71504;BME280;59323;50.874;7.028;2023-01-28T09:33:37;102682.53;;;1.21;80.25
71504;BME280;59323;50.874;7.028;2023-01-28T09:36:04;102688.44;;;1.23;78.54
71504;BME280;59323;50.874;7.028;2023-01-28T09:38:30;102689.25;;;1.23;78.87
71504;BME280;59323;50.874;7.028;2023-01-28T09:40:57;102690.03;;;1.24;78.61
71504;BME280;59323;50.874;7.028;2023-01-28T09:43:31;102691.41;;;1.26;78.46
71504;BME280;59323;50.874;7.028;2023-01-28T09:46:03;102695.97;;;1.26;79.27
71504;BME280;59323;50.874;7.028;2023-01-28T09:48:39;102705.34;;;1.28;78.85
71504;BME280;59323;50.874;7.028;2023-01-28T09:51:27;102699.53;;;1.32;77.60
71504;BME280;59323;50.874;7.028;2023-01-28T09:53:58;102707.47;;;1.26;80.10
71504;BME280;59323;50.874;7.028;2023-01-28T09:56:31;102698.09;;;1.24;79.97
71504;BME280;59323;50.874;7.028;2023-01-28T09:59:17;102716.00;;;1.23;79.47
71504;BME280;59323;50.874;7.028;2023-01-28T10:05:16;102720.69;;;1.33;77.01
71504;BME280;59323;50.874;7.028;2023-01-28T10:07:51;102720.06;;;1.26;79.55
71504;BME280;59323;50.874;7.028;2023-01-28T10:10:29;102723.50;;;1.21;77.53
71504;BME280;59323;50.874;7.028;2023-01-28T10:13:05;102725.41;;;1.26;76.82
71504;BME280;59323;50.874;7.028;2023-01-28T10:18:55;102714.41;;;1.22;76.87
71504;BME280;59323;50.874;7.028;2023-01-28T10:21:31;102710.34;;;1.20;77.43
71504;BME280;59323;50.874;7.028;2023-01-28T10:24:16;102727.19;;;1.15;77.42
71504;BME280;59323;50.874;7.028;2023-01-28T10:26:45;102728.78;;;1.16;78.75
71504;BME280;59323;50.874;7.028;2023-01-28T10:29:13;102711.91;;;1.16;77.26
71504;BME280;59323;50.874;7.028;2023-01-28T10:31:53;102726.69;;;1.18;76.89
71504;BME280;59323;50.874;7.028;2023-01-28T10:34:19;102725.06;;;1.17;78.79
71504;BME280;59323;50.874;7.028;2023-01-28T10:36:47;102726.94;;;1.17;77.89
71504;BME280;59323;50.874;7.028;2023-01-28T10:39:17;102732.09;;;1.23;76.82
71504;BME280;59323;50.874;7.028;2023-01-28T10:41:44;102719.75;;;1.22;78.27
71504;BME280;59323;50.874;7.028;2023-01-28T10:44:26;102720.00;;;1.21;77.63
71504;BME280;59323;50.874;7.028;2023-01-28T10:46:56;102720.25;;;1.19;77.11
71504;BME280;59323;50.874;7.028;2023-01-28T10:49:28;102721.63;;;1.22;75.03
71504;BME280;59323;50.874;7.028;2023-01-28T10:51:54;102729.91;;;1.20;75.58
71504;BME280;59323;50.874;7.028;2023-01-28T10:54:23;102709.00;;;1.17;75.40
71504;BME280;59323;50.874;7.028;2023-01-28T10:57:00;102717.53;;;1.14;75.49
71504;BME280;59323;50.874;7.028;2023-01-28T11:01:56;102712.13;;;1.09;75.64
71504;BME280;59323;50.874;7.028;2023-01-28T11:04:28;102719.91;;;1.11;76.22
71504;BME280;59323;50.874;7.028;2023-01-28T11:06:58;102716.13;;;1.07;75.59
71504;BME280;59323;50.874;7.028;2023-01-28T11:09:35;102729.75;;;1.05;76.30
71504;BME280;59323;50.874;7.028;2023-01-28T11:12:19;102714.00;;;1.09;78.12
71504;BME280;59323;50.874;7.028;2023-01-28T11:14:56;102715.06;;;1.08;77.84
71504;BME280;59323;50.874;7.028;2023-01-28T11:17:23;102717.53;;;1.14;75.99
71504;BME280;59323;50.874;7.028;2023-01-28T11:19:51;102709.44;;;1.09;76.07
71504;BME280;59323;50.874;7.028;2023-01-28T11:22:31;102715.06;;;1.08;74.13
71504;BME280;59323;50.874;7.028;2023-01-28T11:24:59;102717.16;;;1.06;74.15
71504;BME280;59323;50.874;7.028;2023-01-28T11:27:29;102720.09;;;1.04;75.16
71504;BME280;59323;50.874;7.028;2023-01-28T11:29:57;102705.91;;;1.04;74.93
71504;BME280;59323;50.874;7.028;2023-01-28T11:32:27;102707.78;;;1.03;75.40
71504;BME280;59323;50.874;7.028;2023-01-28T11:34:54;102704.78;;;1.00;76.45
71504;BME280;59323;50.874;7.028;2023-01-28T11:37:26;102712.81;;;1.00;75.41
71504;BME280;59323;50.874;7.028;2023-01-28T11:40:14;102707.72;;;0.98;76.87
71504;BME280;59323;50.874;7.028;2023-01-28T11:42:46;102708.84;;;1.02;78.09
71504;BME280;59323;50.874;7.028;2023-01-28T11:45:21;102715.56;;;1.05;77.86
71504;BME280;59323;50.874;7.028;2023-01-28T11:48:06;102707.28;;;1.06;76.85
71504;BME280;59323;50.874;7.028;2023-01-28T11:54:03;102717.59;;;1.19;73.97
71504;BME280;59323;50.874;7.028;2023-01-28T12:01:44;102712.72;;;1.16;75.04
71504;BME280;59323;50.874;7.028;2023-01-28T12:07:19;102704.75;;;1.21;75.06
71504;BME280;59323;50.874;7.028;2023-01-28T12:18:15;102699.66;;;1.20;74.74
71504;BME280;59323;50.874;7.028;2023-01-28T12:21:04;102687.56;;;1.17;75.21
71504;BME280;59323;50.874;7.028;2023-01-28T12:35:16;102680.16;;;1.24;74.33
71504;BME280;59323;50.874;7.028;2023-01-28T12:37:58;102681.50;;;1.27;74.63
71504;BME280;59323;50.874;7.028;2023-01-28T12:43:32;102693.84;;;1.28;74.46
71504;BME280;59323;50.874;7.028;2023-01-28T12:46:08;102689.78;;;1.25;75.46
71504;BME280;59323;50.874;7.028;2023-01-28T12:48:41;102687.13;;;1.25;76.24
71504;BME280;59323;50.874;7.028;2023-01-28T12:53:48;102694.16;;;1.32;74.00
71504;BME280;59323;50.874;7.028;2023-01-28T12:56:16;102689.88;;;1.31;74.98
71504;BME280;59323;50.874;7.028;2023-01-28T13:01:15;102689.91;;;1.36;74.96
71504;BME280;59323;50.874;7.028;2023-01-28T13:04:42;102686.69;;;1.34;73.12
71504;BME280;59323;50.874;7.028;2023-01-28T13:06:57;102680.81;;;1.37;72.90
71504;BME280;59323;50.874;7.028;2023-01-28T13:09:25;102665.81;;;1.36;72.47
71504;BME280;59323;50.874;7.028;2023-01-28T13:11:55;102663.13;;;1.36;70.94
71504;BME280;59323;50.874;7.028;2023-01-28T13:14:28;102651.31;;;1.32;71.98
71504;BME280;59323;50.874;7.028;2023-01-28T13:16:54;102653.22;;;1.36;72.87
71504;BME280;59323;50.874;7.028;2023-01-28T13:19:24;102644.94;;;1.38;72.38
71504;BME280;59323;50.874;7.028;2023-01-28T13:22:21;102642.81;;;1.40;71.98
71504;BME280;59323;50.874;7.028;2023-01-28T13:24:49;102642.81;;;1.40;72.57
71504;BME280;59323;50.874;7.028;2023-01-28T13:27:24;102646.06;;;1.42;72.54
71504;BME280;59323;50.874;7.028;2023-01-28T13:30:00;102646.34;;;1.45;73.14
71504;BME280;59323;50.874;7.028;2023-01-28T13:32:34;102642.66;;;1.51;72.56
71504;BME280;59323;50.874;7.028;2023-01-28T13:35:04;102633.78;;;1.51;72.53
71504;BME280;59323;50.874;7.028;2023-01-28T13:42:39;102616.41;;;1.53;68.55
71504;BME280;59323;50.874;7.028;2023-01-28T13:45:19;102600.88;;;1.55;70.00
71504;BME280;59323;50.874;7.028;2023-01-28T13:47:49;102596.63;;;1.59;70.48
71504;BME280;59323;50.874;7.028;2023-01-28T13:50:19;102584.31;;;1.64;70.71
71504;BME280;59323;50.874;7.028;2023-01-28T13:53:04;102566.66;;;1.68;70.03
71504;BME280;59323;50.874;7.028;2023-01-28T13:55:38;102568.81;;;1.71;69.94
71504;BME280;59323;50.874;7.028;2023-01-28T14:00:53;102612.78;;;1.75;69.93
71504;BME280;59323;50.874;7.028;2023-01-28T14:17:47;102648.47;;;1.80;69.94
71504;BME280;59323;50.874;7.028;2023-01-28T14:20:22;102642.59;;;1.83;71.70
71504;BME280;59323;50.874;7.028;2023-01-28T14:22:50;102637.81;;;1.90;70.15
71504;BME280;59323;50.874;7.028;2023-01-28T14:25:28;102629.78;;;1.90;71.81
71504;BME280;59323;50.874;7.028;2023-01-28T14:27:58;102648.34;;;1.97;70.54
71504;BME280;59323;50.874;7.028;2023-01-28T14:32:58;102660.94;;;1.97;69.35
71504;BME280;59323;50.874;7.028;2023-01-28T14:35:30;102660.72;;;2.03;68.61
71504;BME280;59323;50.874;7.028;2023-01-28T14:37:57;102661.78;;;2.02;69.05
71504;BME280;59323;50.874;7.028;2023-01-28T14:40:24;102658.00;;;1.98;70.24
71504;BME280;59323;50.874;7.028;2023-01-28T14:42:52;102660.31;;;1.89;71.26
71504;BME280;59323;50.874;7.028;2023-01-28T14:56:33;102657.09;;;1.87;71.80
71504;BME280;59323;50.874;7.028;2023-01-28T15:01:46;102667.00;;;1.87;70.59
71504;BME280;59323;50.874;7.028;2023-01-28T15:04:33;102656.84;;;1.89;68.20